sensor_id;sensor_type;location;lat;lon;timestamp;P1;durP1;ratioP1;P2;durP2;ratioP2
4652;SDS011;9900;48.738;9.306;2022-12-11T00:01:12;20.70;;;11.93;;
4652;SDS011;9900;48.738;9.306;2022-12-11T00:03:41;18.30;;;10.97;;
4652;SDS011;9900;48.738;9.306;2022-12-11T00:06:11;17.60;;;11.13;;
4652;SDS011;9900;48.738;9.306;2022-12-11T00:08:42;14.90;;;10.70;;
4652;SDS011;9900;48.738;9.306;2022-12-11T00:11:11;16.63;;;10.73;;
4652;SDS011;9900;48.738;9.306;2022-12-11T00:13:41;20.53;;;12.10;;
4652;SDS011;9900;48.738;9.306;2022-12-11T00:16:10;18.37;;;10.67;;
4652;SDS011;9900;48.738;9.306;2022-12-11T00:18:39;18.17;;;11.50;;
4652;SDS011;9900;48.738;9.306;2022-12-11T00:21:09;14.27;;;10.23;;
4652;SDS011;9900;48.738;9.306;2022-12-11T00:23:39;16.57;;;9.70;;
4652;SDS011;9900;48.738;9.306;2022-12-11T00:26:12;15.20;;;10.10;;
4652;SDS011;9900;48.738;9.306;2022-12-11T00:28:42;17.13;;;11.27;;
4652;SDS011;9900;48.738;9.306;2022-12-11T00:31:11;16.47;;;11.20;;
4652;SDS011;9900;48.738;9.306;2022-12-11T00:33:41;20.63;;;12.33;;
4652;SDS011;9900;48.738;9.306;2022-12-11T00:36:11;17.70;;;10.70;;
4652;SDS011;9900;48.738;9.306;2022-12-11T00:38:40;20.60;;;12.27;;
4652;SDS011;9900;48.738;9.306;2022-12-11T00:41:11;19.73;;;11.33;;
4652;SDS011;9900;48.738;9.306;2022-12-11T00:43:40;19.67;;;11.80;;
4652;SDS011;9900;48.738;9.306;2022-12-11T00:46:09;16.30;;;11.33;;
4652;SDS011;9900;48.738;9.306;2022-12-11T00:48:37;53.17;;;12.20;;
4652;SDS011;9900;48.738;9.306;2022-12-11T00:51:06;19.23;;;10.80;;
4652;SDS011;9900;48.738;9.306;2022-12-11T00:53:35;19.57;;;11.27;;
4652;SDS011;9900;48.738;9.306;2022-12-11T00:56:08;24.73;;;11.20;;
4652;SDS011;9900;48.738;9.306;2022-12-11T00:58:40;17.23;;;10.17;;
4652;SDS011;9900;48.738;9.306;2022-12-11T01:01:09;20.73;;;12.40;;
4652;SDS011;9900;48.738;9.306;2022-12-11T01:03:39;17.53;;;10.70;;
4652;SDS011;9900;48.738;9.306;2022-12-11T01:06:10;17.10;;;10.37;;
4652;SDS011;9900;48.738;9.306;2022-12-11T01:08:40;17.80;;;11.20;;
4652;SDS011;9900;48.738;9.306;2022-12-11T01:11:11;18.37;;;11.40;;
4652;SDS011;9900;48.738;9.306;2022-12-11T01:13:40;19.10;;;11.97;;
4652;SDS011;9900;48.738;9.306;2022-12-11T01:16:09;16.70;;;10.17;;
4652;SDS011;9900;48.738;9.306;2022-12-11T01:18:40;17.13;;;11.40;;
4652;SDS011;9900;48.738;9.306;2022-12-11T01:21:09;20.93;;;12.23;;
4652;SDS011;9900;48.738;9.306;2022-12-11T01:23:39;17.13;;;11.70;;
4652;SDS011;9900;48.738;9.306;2022-12-11T01:26:08;16.73;;;11.67;;
4652;SDS011;9900;48.738;9.306;2022-12-11T01:28:40;17.30;;;11.10;;
4652;SDS011;9900;48.738;9.306;2022-12-11T01:31:09;17.67;;;11.70;;
4652;SDS011;9900;48.738;9.306;2022-12-11T01:33:39;15.50;;;10.57;;
4652;SDS011;9900;48.738;9.306;2022-12-11T01:36:08;17.63;;;11.00;;
4652;SDS011;9900;48.738;9.306;2022-12-11T01:38:38;16.60;;;10.97;;
4652;SDS011;9900;48.738;9.306;2022-12-11T01:41:07;20.50;;;13.47;;
4652;SDS011;9900;48.738;9.306;2022-12-11T01:46:25;19.23;;;11.33;;
4652;SDS011;9900;48.738;9.306;2022-12-11T01:48:54;19.87;;;11.93;;
4652;SDS011;9900;48.738;9.306;2022-12-11T01:51:23;19.53;;;12.00;;
4652;SDS011;9900;48.738;9.306;2022-12-11T01:53:52;17.97;;;10.93;;
4652;SDS011;9900;48.738;9.306;2022-12-11T01:56:22;25.27;;;11.87;;
4652;SDS011;9900;48.738;9.306;2022-12-11T01:58:53;20.60;;;11.63;;
4652;SDS011;9900;48.738;9.306;2022-12-11T02:01:27;19.10;;;11.80;;
4652;SDS011;9900;48.738;9.306;2022-12-11T02:04:00;18.60;;;11.67;;
4652;SDS011;9900;48.738;9.306;2022-12-11T02:06:30;22.27;;;12.43;;
4652;SDS011;9900;48.738;9.306;2022-12-11T02:09:03;16.97;;;11.17;;
4652;SDS011;9900;48.738;9.306;2022-12-11T02:11:35;19.30;;;11.70;;
4652;SDS011;9900;48.738;9.306;2022-12-11T02:14:11;17.13;;;11.53;;
4652;SDS011;9900;48.738;9.306;2022-12-11T02:16:43;18.43;;;11.33;;
4652;SDS011;9900;48.738;9.306;2022-12-11T02:19:17;21.77;;;13.67;;
4652;SDS011;9900;48.738;9.306;2022-12-11T02:22:00;18.93;;;11.40;;
4652;SDS011;9900;48.738;9.306;2022-12-11T02:24:38;17.93;;;11.30;;
4652;SDS011;9900;48.738;9.306;2022-12-11T02:27:17;19.03;;;11.63;;
4652;SDS011;9900;48.738;9.306;2022-12-11T02:29:52;19.40;;;11.50;;
4652;SDS011;9900;48.738;9.306;2022-12-11T02:32:24;16.80;;;10.80;;
4652;SDS011;9900;48.738;9.306;2022-12-11T02:34:55;19.00;;;12.57;;
4652;SDS011;9900;48.738;9.306;2022-12-11T02:37:26;17.33;;;10.40;;
4652;SDS011;9900;48.738;9.306;2022-12-11T02:39:57;16.67;;;10.87;;
4652;SDS011;9900;48.738;9.306;2022-12-11T02:42:26;17.80;;;11.30;;
4652;SDS011;9900;48.738;9.306;2022-12-11T02:44:59;18.77;;;12.03;;
4652;SDS011;9900;48.738;9.306;2022-12-11T02:47:28;18.67;;;11.43;;
4652;SDS011;9900;48.738;9.306;2022-12-11T02:49:59;19.57;;;12.40;;
4652;SDS011;9900;48.738;9.306;2022-12-11T02:52:31;15.10;;;10.77;;
4652;SDS011;9900;48.738;9.306;2022-12-11T02:55:00;18.70;;;11.60;;
4652;SDS011;9900;48.738;9.306;2022-12-11T02:57:30;18.40;;;10.90;;
4652;SDS011;9900;48.738;9.306;2022-12-11T03:00:04;16.90;;;10.40;;
4652;SDS011;9900;48.738;9.306;2022-12-11T03:02:34;19.47;;;10.87;;
4652;SDS011;9900;48.738;9.306;2022-12-11T03:05:04;16.77;;;11.40;;
4652;SDS011;9900;48.738;9.306;2022-12-11T03:07:34;22.87;;;11.70;;
4652;SDS011;9900;48.738;9.306;2022-12-11T03:10:04;16.67;;;10.50;;
4652;SDS011;9900;48.738;9.306;2022-12-11T03:12:35;16.13;;;10.80;;
4652;SDS011;9900;48.738;9.306;2022-12-11T03:15:08;17.90;;;10.93;;
4652;SDS011;9900;48.738;9.306;2022-12-11T03:17:41;19.70;;;11.70;;
4652;SDS011;9900;48.738;9.306;2022-12-11T03:20:17;19.10;;;11.97;;
4652;SDS011;9900;48.738;9.306;2022-12-11T03:22:50;16.90;;;10.80;;
4652;SDS011;9900;48.738;9.306;2022-12-11T03:25:24;19.37;;;10.73;;
4652;SDS011;9900;48.738;9.306;2022-12-11T03:27:55;17.87;;;11.20;;
4652;SDS011;9900;48.738;9.306;2022-12-11T03:30:27;16.00;;;10.17;;
4652;SDS011;9900;48.738;9.306;2022-12-11T03:32:57;17.00;;;11.10;;
4652;SDS011;9900;48.738;9.306;2022-12-11T03:35:32;18.40;;;10.80;;
4652;SDS011;9900;48.738;9.306;2022-12-11T03:38:04;15.37;;;10.20;;
4652;SDS011;9900;48.738;9.306;2022-12-11T03:40:36;17.07;;;11.33;;
4652;SDS011;9900;48.738;9.306;2022-12-11T03:43:06;13.97;;;9.63;;
4652;SDS011;9900;48.738;9.306;2022-12-11T03:45:36;16.67;;;11.00;;
4652;SDS011;9900;48.738;9.306;2022-12-11T03:48:06;15.50;;;9.93;;
4652;SDS011;9900;48.738;9.306;2022-12-11T03:50:37;16.00;;;10.47;;
4652;SDS011;9900;48.738;9.306;2022-12-11T03:53:07;17.03;;;10.00;;
4652;SDS011;9900;48.738;9.306;2022-12-11T03:55:37;17.60;;;10.10;;
4652;SDS011;9900;48.738;9.306;2022-12-11T03:58:06;13.60;;;9.60;;
4652;SDS011;9900;48.738;9.306;2022-12-11T04:00:37;15.57;;;9.57;;
4652;SDS011;9900;48.738;9.306;2022-12-11T04:03:05;14.37;;;9.97;;
4652;SDS011;9900;48.738;9.306;2022-12-11T04:05:41;16.17;;;9.50;;
4652;SDS011;9900;48.738;9.306;2022-12-11T04:08:11;15.53;;;9.67;;
4652;SDS011;9900;48.738;9.306;2022-12-11T04:10:40;13.80;;;8.67;;
4652;SDS011;9900;48.738;9.306;2022-12-11T04:13:09;12.67;;;8.50;;
4652;SDS011;9900;48.738;9.306;2022-12-11T04:15:39;13.37;;;9.50;;
4652;SDS011;9900;48.738;9.306;2022-12-11T04:18:08;12.57;;;8.30;;
4652;SDS011;9900;48.738;9.306;2022-12-11T04:20:54;15.07;;;8.87;;
4652;SDS011;9900;48.738;9.306;2022-12-11T04:23:37;16.80;;;9.87;;
4652;SDS011;9900;48.738;9.306;2022-12-11T04:26:24;17.60;;;10.17;;
4652;SDS011;9900;48.738;9.306;2022-12-11T04:28:52;16.20;;;10.60;;
4652;SDS011;9900;48.738;9.306;2022-12-11T04:31:23;15.77;;;9.20;;
4652;SDS011;9900;48.738;9.306;2022-12-11T04:33:51;18.00;;;10.33;;
4652;SDS011;9900;48.738;9.306;2022-12-11T04:36:20;14.90;;;9.80;;
4652;SDS011;9900;48.738;9.306;2022-12-11T04:38:49;14.53;;;9.60;;
4652;SDS011;9900;48.738;9.306;2022-12-11T04:41:17;14.40;;;9.17;;
4652;SDS011;9900;48.738;9.306;2022-12-11T04:43:46;13.33;;;9.43;;
4652;SDS011;9900;48.738;9.306;2022-12-11T04:46:15;16.00;;;9.57;;
4652;SDS011;9900;48.738;9.306;2022-12-11T04:48:46;17.47;;;10.00;;
4652;SDS011;9900;48.738;9.306;2022-12-11T04:51:23;15.10;;;9.60;;
4652;SDS011;9900;48.738;9.306;2022-12-11T04:53:52;15.07;;;9.97;;
4652;SDS011;9900;48.738;9.306;2022-12-11T04:56:21;14.13;;;9.83;;
4652;SDS011;9900;48.738;9.306;2022-12-11T04:58:50;14.70;;;9.10;;
4652;SDS011;9900;48.738;9.306;2022-12-11T05:01:19;12.77;;;8.33;;
4652;SDS011;9900;48.738;9.306;2022-12-11T05:03:50;13.27;;;9.47;;
4652;SDS011;9900;48.738;9.306;2022-12-11T05:06:19;16.90;;;10.27;;
4652;SDS011;9900;48.738;9.306;2022-12-11T05:08:48;14.73;;;10.37;;
4652;SDS011;9900;48.738;9.306;2022-12-11T05:11:16;15.30;;;9.43;;
4652;SDS011;9900;48.738;9.306;2022-12-11T05:13:45;14.03;;;9.67;;
4652;SDS011;9900;48.738;9.306;2022-12-11T05:16:14;13.03;;;8.47;;
4652;SDS011;9900;48.738;9.306;2022-12-11T05:18:43;11.87;;;8.43;;
4652;SDS011;9900;48.738;9.306;2022-12-11T05:21:14;15.00;;;8.47;;
4652;SDS011;9900;48.738;9.306;2022-12-11T05:23:43;12.40;;;8.70;;
4652;SDS011;9900;48.738;9.306;2022-12-11T05:26:12;11.83;;;7.87;;
4652;SDS011;9900;48.738;9.306;2022-12-11T05:28:43;16.20;;;8.30;;
4652;SDS011;9900;48.738;9.306;2022-12-11T05:31:14;12.37;;;8.37;;
4652;SDS011;9900;48.738;9.306;2022-12-11T05:33:44;13.73;;;8.10;;
4652;SDS011;9900;48.738;9.306;2022-12-11T05:36:16;16.80;;;8.40;;
4652;SDS011;9900;48.738;9.306;2022-12-11T05:38:46;12.93;;;7.50;;
4652;SDS011;9900;48.738;9.306;2022-12-11T05:41:16;12.40;;;7.90;;
4652;SDS011;9900;48.738;9.306;2022-12-11T05:43:45;11.47;;;7.73;;
4652;SDS011;9900;48.738;9.306;2022-12-11T05:46:15;13.13;;;8.20;;
4652;SDS011;9900;48.738;9.306;2022-12-11T05:48:45;14.53;;;7.63;;
4652;SDS011;9900;48.738;9.306;2022-12-11T05:51:16;11.83;;;8.00;;
4652;SDS011;9900;48.738;9.306;2022-12-11T05:53:46;10.97;;;7.33;;
4652;SDS011;9900;48.738;9.306;2022-12-11T05:56:16;12.93;;;8.30;;
4652;SDS011;9900;48.738;9.306;2022-12-11T05:58:47;12.80;;;8.40;;
4652;SDS011;9900;48.738;9.306;2022-12-11T06:01:16;15.00;;;9.13;;
4652;SDS011;9900;48.738;9.306;2022-12-11T06:03:46;13.13;;;7.50;;
4652;SDS011;9900;48.738;9.306;2022-12-11T06:06:17;13.27;;;8.13;;
4652;SDS011;9900;48.738;9.306;2022-12-11T06:08:48;11.43;;;7.50;;
4652;SDS011;9900;48.738;9.306;2022-12-11T06:11:16;12.60;;;8.10;;
4652;SDS011;9900;48.738;9.306;2022-12-11T06:13:50;11.60;;;8.60;;
4652;SDS011;9900;48.738;9.306;2022-12-11T06:16:19;12.17;;;7.93;;
4652;SDS011;9900;48.738;9.306;2022-12-11T06:18:49;13.70;;;8.60;;
4652;SDS011;9900;48.738;9.306;2022-12-11T06:21:24;11.87;;;7.73;;
4652;SDS011;9900;48.738;9.306;2022-12-11T06:23:54;15.00;;;7.37;;
4652;SDS011;9900;48.738;9.306;2022-12-11T06:26:24;13.80;;;7.93;;
4652;SDS011;9900;48.738;9.306;2022-12-11T06:28:53;13.37;;;8.03;;
4652;SDS011;9900;48.738;9.306;2022-12-11T06:31:22;12.63;;;8.10;;
4652;SDS011;9900;48.738;9.306;2022-12-11T06:33:51;15.80;;;8.60;;
4652;SDS011;9900;48.738;9.306;2022-12-11T06:36:20;12.13;;;8.13;;
4652;SDS011;9900;48.738;9.306;2022-12-11T06:38:51;11.37;;;7.97;;
4652;SDS011;9900;48.738;9.306;2022-12-11T06:41:20;13.20;;;8.10;;
4652;SDS011;9900;48.738;9.306;2022-12-11T06:43:49;13.70;;;8.33;;
4652;SDS011;9900;48.738;9.306;2022-12-11T06:46:18;11.97;;;6.70;;
4652;SDS011;9900;48.738;9.306;2022-12-11T06:48:47;12.50;;;8.40;;
4652;SDS011;9900;48.738;9.306;2022-12-11T06:51:17;13.93;;;8.30;;
4652;SDS011;9900;48.738;9.306;2022-12-11T06:53:50;14.43;;;8.23;;
4652;SDS011;9900;48.738;9.306;2022-12-11T06:56:20;13.40;;;7.23;;
4652;SDS011;9900;48.738;9.306;2022-12-11T06:58:49;15.53;;;8.57;;
4652;SDS011;9900;48.738;9.306;2022-12-11T07:01:18;17.60;;;8.83;;
4652;SDS011;9900;48.738;9.306;2022-12-11T07:03:50;13.93;;;8.63;;
4652;SDS011;9900;48.738;9.306;2022-12-11T07:06:20;15.23;;;8.97;;
4652;SDS011;9900;48.738;9.306;2022-12-11T07:08:50;15.17;;;8.03;;
4652;SDS011;9900;48.738;9.306;2022-12-11T07:11:19;12.50;;;8.43;;
4652;SDS011;9900;48.738;9.306;2022-12-11T07:13:48;14.83;;;8.57;;
4652;SDS011;9900;48.738;9.306;2022-12-11T07:16:17;14.87;;;9.63;;
4652;SDS011;9900;48.738;9.306;2022-12-11T07:18:46;12.50;;;8.60;;
4652;SDS011;9900;48.738;9.306;2022-12-11T07:21:17;14.83;;;8.83;;
4652;SDS011;9900;48.738;9.306;2022-12-11T07:23:46;14.87;;;9.13;;
4652;SDS011;9900;48.738;9.306;2022-12-11T07:26:17;14.10;;;9.27;;
4652;SDS011;9900;48.738;9.306;2022-12-11T07:28:48;12.57;;;8.37;;
4652;SDS011;9900;48.738;9.306;2022-12-11T07:31:18;14.30;;;9.27;;
4652;SDS011;9900;48.738;9.306;2022-12-11T07:33:51;12.93;;;8.73;;
4652;SDS011;9900;48.738;9.306;2022-12-11T07:36:21;17.30;;;8.43;;
4652;SDS011;9900;48.738;9.306;2022-12-11T07:38:50;14.13;;;8.53;;
4652;SDS011;9900;48.738;9.306;2022-12-11T07:41:20;14.87;;;8.83;;
4652;SDS011;9900;48.738;9.306;2022-12-11T07:43:50;14.30;;;9.23;;
4652;SDS011;9900;48.738;9.306;2022-12-11T07:46:19;16.00;;;8.90;;
4652;SDS011;9900;48.738;9.306;2022-12-11T07:48:49;14.53;;;8.57;;
4652;SDS011;9900;48.738;9.306;2022-12-11T07:51:19;14.63;;;9.40;;
4652;SDS011;9900;48.738;9.306;2022-12-11T07:53:51;13.97;;;8.63;;
4652;SDS011;9900;48.738;9.306;2022-12-11T07:56:22;17.00;;;8.37;;
4652;SDS011;9900;48.738;9.306;2022-12-11T07:58:51;20.10;;;9.20;;
4652;SDS011;9900;48.738;9.306;2022-12-11T08:01:20;16.63;;;8.50;;
4652;SDS011;9900;48.738;9.306;2022-12-11T08:03:50;13.90;;;8.60;;
4652;SDS011;9900;48.738;9.306;2022-12-11T08:06:23;14.03;;;9.33;;
4652;SDS011;9900;48.738;9.306;2022-12-11T08:08:53;13.60;;;8.60;;
4652;SDS011;9900;48.738;9.306;2022-12-11T08:11:23;14.43;;;9.63;;
4652;SDS011;9900;48.738;9.306;2022-12-11T08:13:52;13.97;;;8.67;;
4652;SDS011;9900;48.738;9.306;2022-12-11T08:16:21;14.20;;;9.30;;
4652;SDS011;9900;48.738;9.306;2022-12-11T08:18:50;21.50;;;9.20;;
4652;SDS011;9900;48.738;9.306;2022-12-11T08:21:20;16.17;;;9.60;;
4652;SDS011;9900;48.738;9.306;2022-12-11T08:23:49;17.10;;;9.33;;
4652;SDS011;9900;48.738;9.306;2022-12-11T08:26:20;14.33;;;9.57;;
4652;SDS011;9900;48.738;9.306;2022-12-11T08:28:52;17.67;;;9.43;;
4652;SDS011;9900;48.738;9.306;2022-12-11T08:31:21;12.07;;;8.43;;
4652;SDS011;9900;48.738;9.306;2022-12-11T08:33:50;17.27;;;10.23;;
4652;SDS011;9900;48.738;9.306;2022-12-11T08:36:20;14.03;;;9.37;;
4652;SDS011;9900;48.738;9.306;2022-12-11T08:38:49;15.13;;;9.87;;
4652;SDS011;9900;48.738;9.306;2022-12-11T08:41:18;12.57;;;8.73;;
4652;SDS011;9900;48.738;9.306;2022-12-11T08:43:49;13.90;;;8.87;;
4652;SDS011;9900;48.738;9.306;2022-12-11T08:46:21;14.07;;;8.60;;
4652;SDS011;9900;48.738;9.306;2022-12-11T08:48:51;16.50;;;9.90;;
4652;SDS011;9900;48.738;9.306;2022-12-11T08:51:21;16.03;;;9.47;;
4652;SDS011;9900;48.738;9.306;2022-12-11T08:53:53;14.50;;;9.70;;
4652;SDS011;9900;48.738;9.306;2022-12-11T08:56:22;12.90;;;9.50;;
4652;SDS011;9900;48.738;9.306;2022-12-11T08:58:52;17.30;;;9.90;;
4652;SDS011;9900;48.738;9.306;2022-12-11T09:01:21;15.20;;;9.23;;
4652;SDS011;9900;48.738;9.306;2022-12-11T09:03:51;18.30;;;10.47;;
4652;SDS011;9900;48.738;9.306;2022-12-11T09:06:22;18.70;;;11.40;;
4652;SDS011;9900;48.738;9.306;2022-12-11T09:08:52;14.80;;;9.33;;
4652;SDS011;9900;48.738;9.306;2022-12-11T09:11:22;13.20;;;9.67;;
4652;SDS011;9900;48.738;9.306;2022-12-11T09:13:54;14.90;;;9.97;;
4652;SDS011;9900;48.738;9.306;2022-12-11T09:16:26;23.97;;;10.50;;
4652;SDS011;9900;48.738;9.306;2022-12-11T09:18:56;22.83;;;11.00;;
4652;SDS011;9900;48.738;9.306;2022-12-11T09:21:26;16.43;;;10.13;;
4652;SDS011;9900;48.738;9.306;2022-12-11T09:23:59;17.30;;;10.10;;
4652;SDS011;9900;48.738;9.306;2022-12-11T09:26:28;19.63;;;10.80;;
4652;SDS011;9900;48.738;9.306;2022-12-11T09:29:00;19.60;;;11.40;;
4652;SDS011;9900;48.738;9.306;2022-12-11T09:31:30;17.77;;;10.80;;
4652;SDS011;9900;48.738;9.306;2022-12-11T09:34:01;15.30;;;9.30;;
4652;SDS011;9900;48.738;9.306;2022-12-11T09:36:31;17.60;;;11.50;;
4652;SDS011;9900;48.738;9.306;2022-12-11T09:39:00;18.23;;;11.87;;
4652;SDS011;9900;48.738;9.306;2022-12-11T09:41:35;18.70;;;11.27;;
4652;SDS011;9900;48.738;9.306;2022-12-11T09:44:14;20.57;;;12.57;;
4652;SDS011;9900;48.738;9.306;2022-12-11T09:46:48;16.90;;;10.33;;
4652;SDS011;9900;48.738;9.306;2022-12-11T09:49:23;19.07;;;10.40;;
4652;SDS011;9900;48.738;9.306;2022-12-11T09:54:47;17.80;;;11.00;;
4652;SDS011;9900;48.738;9.306;2022-12-11T09:57:20;18.17;;;10.90;;
4652;SDS011;9900;48.738;9.306;2022-12-11T10:00:03;18.07;;;10.77;;
4652;SDS011;9900;48.738;9.306;2022-12-11T10:02:48;21.50;;;11.30;;
4652;SDS011;9900;48.738;9.306;2022-12-11T10:05:29;20.43;;;11.57;;
4652;SDS011;9900;48.738;9.306;2022-12-11T10:08:02;18.10;;;11.90;;
4652;SDS011;9900;48.738;9.306;2022-12-11T10:10:36;20.47;;;12.20;;
4652;SDS011;9900;48.738;9.306;2022-12-11T10:13:11;18.00;;;11.77;;
4652;SDS011;9900;48.738;9.306;2022-12-11T10:15:48;20.10;;;11.23;;
4652;SDS011;9900;48.738;9.306;2022-12-11T10:18:19;19.30;;;11.33;;
4652;SDS011;9900;48.738;9.306;2022-12-11T10:20:51;22.60;;;12.80;;
4652;SDS011;9900;48.738;9.306;2022-12-11T10:23:20;19.20;;;10.87;;
4652;SDS011;9900;48.738;9.306;2022-12-11T10:25:52;17.17;;;10.80;;
4652;SDS011;9900;48.738;9.306;2022-12-11T10:28:25;16.83;;;10.47;;
4652;SDS011;9900;48.738;9.306;2022-12-11T10:30:56;18.00;;;10.73;;
4652;SDS011;9900;48.738;9.306;2022-12-11T10:33:33;18.10;;;11.40;;
4652;SDS011;9900;48.738;9.306;2022-12-11T10:36:09;17.00;;;11.03;;
4652;SDS011;9900;48.738;9.306;2022-12-11T10:38:39;18.27;;;11.07;;
4652;SDS011;9900;48.738;9.306;2022-12-11T10:41:10;18.07;;;11.60;;
4652;SDS011;9900;48.738;9.306;2022-12-11T10:43:41;17.50;;;11.20;;
4652;SDS011;9900;48.738;9.306;2022-12-11T10:46:14;17.40;;;10.83;;
4652;SDS011;9900;48.738;9.306;2022-12-11T10:48:45;19.00;;;10.20;;
4652;SDS011;9900;48.738;9.306;2022-12-11T10:51:14;15.83;;;10.33;;
4652;SDS011;9900;48.738;9.306;2022-12-11T10:53:47;19.17;;;11.10;;
4652;SDS011;9900;48.738;9.306;2022-12-11T10:56:23;18.90;;;11.10;;
4652;SDS011;9900;48.738;9.306;2022-12-11T10:58:52;17.47;;;10.53;;
4652;SDS011;9900;48.738;9.306;2022-12-11T11:01:24;17.70;;;10.83;;
4652;SDS011;9900;48.738;9.306;2022-12-11T11:03:56;16.07;;;10.73;;
4652;SDS011;9900;48.738;9.306;2022-12-11T11:06:27;20.53;;;12.10;;
4652;SDS011;9900;48.738;9.306;2022-12-11T11:08:57;18.10;;;10.90;;
4652;SDS011;9900;48.738;9.306;2022-12-11T11:11:27;19.80;;;10.93;;
4652;SDS011;9900;48.738;9.306;2022-12-11T11:14:04;17.70;;;10.50;;
4652;SDS011;9900;48.738;9.306;2022-12-11T11:16:36;19.10;;;10.93;;
4652;SDS011;9900;48.738;9.306;2022-12-11T11:19:06;21.77;;;11.23;;
4652;SDS011;9900;48.738;9.306;2022-12-11T11:21:34;17.53;;;10.47;;
4652;SDS011;9900;48.738;9.306;2022-12-11T11:24:03;16.13;;;10.47;;
4652;SDS011;9900;48.738;9.306;2022-12-11T11:26:32;16.67;;;11.27;;
4652;SDS011;9900;48.738;9.306;2022-12-11T11:29:23;20.03;;;11.70;;
4652;SDS011;9900;48.738;9.306;2022-12-11T11:31:55;19.47;;;11.13;;
4652;SDS011;9900;48.738;9.306;2022-12-11T11:34:24;20.50;;;11.43;;
4652;SDS011;9900;48.738;9.306;2022-12-11T11:36:57;18.83;;;11.63;;
4652;SDS011;9900;48.738;9.306;2022-12-11T11:39:32;17.47;;;10.50;;
4652;SDS011;9900;48.738;9.306;2022-12-11T11:42:05;15.67;;;10.30;;
4652;SDS011;9900;48.738;9.306;2022-12-11T11:44:38;18.20;;;12.10;;
4652;SDS011;9900;48.738;9.306;2022-12-11T11:47:12;16.77;;;11.37;;
4652;SDS011;9900;48.738;9.306;2022-12-11T11:49:46;17.47;;;10.70;;
4652;SDS011;9900;48.738;9.306;2022-12-11T11:52:19;20.00;;;12.17;;
4652;SDS011;9900;48.738;9.306;2022-12-11T11:54:54;18.60;;;11.00;;
4652;SDS011;9900;48.738;9.306;2022-12-11T11:57:28;18.30;;;10.67;;
4652;SDS011;9900;48.738;9.306;2022-12-11T12:00:04;18.17;;;10.73;;
4652;SDS011;9900;48.738;9.306;2022-12-11T12:02:39;17.00;;;10.50;;
4652;SDS011;9900;48.738;9.306;2022-12-11T12:05:11;16.90;;;10.27;;
4652;SDS011;9900;48.738;9.306;2022-12-11T12:07:41;23.53;;;10.50;;
4652;SDS011;9900;48.738;9.306;2022-12-11T12:10:15;19.70;;;11.40;;
4652;SDS011;9900;48.738;9.306;2022-12-11T12:12:51;17.13;;;9.70;;
4652;SDS011;9900;48.738;9.306;2022-12-11T12:15:27;16.90;;;10.47;;
4652;SDS011;9900;48.738;9.306;2022-12-11T12:18:03;20.87;;;10.70;;
4652;SDS011;9900;48.738;9.306;2022-12-11T12:20:40;19.33;;;10.50;;
4652;SDS011;9900;48.738;9.306;2022-12-11T12:23:16;17.43;;;10.13;;
4652;SDS011;9900;48.738;9.306;2022-12-11T12:25:59;16.73;;;10.20;;
4652;SDS011;9900;48.738;9.306;2022-12-11T12:28:34;16.37;;;9.47;;
4652;SDS011;9900;48.738;9.306;2022-12-11T12:31:11;13.77;;;9.30;;
4652;SDS011;9900;48.738;9.306;2022-12-11T12:33:49;14.70;;;9.27;;
4652;SDS011;9900;48.738;9.306;2022-12-11T12:36:23;14.40;;;9.37;;
4652;SDS011;9900;48.738;9.306;2022-12-11T12:38:57;18.33;;;9.83;;
4652;SDS011;9900;48.738;9.306;2022-12-11T12:41:32;16.53;;;10.00;;
4652;SDS011;9900;48.738;9.306;2022-12-11T12:44:11;15.43;;;9.80;;
4652;SDS011;9900;48.738;9.306;2022-12-11T12:46:44;17.87;;;9.63;;
4652;SDS011;9900;48.738;9.306;2022-12-11T12:49:21;15.43;;;9.80;;
4652;SDS011;9900;48.738;9.306;2022-12-11T12:51:55;16.13;;;9.70;;
4652;SDS011;9900;48.738;9.306;2022-12-11T12:54:25;17.90;;;10.40;;
4652;SDS011;9900;48.738;9.306;2022-12-11T12:56:54;19.10;;;10.03;;
4652;SDS011;9900;48.738;9.306;2022-12-11T12:59:24;17.10;;;10.30;;
4652;SDS011;9900;48.738;9.306;2022-12-11T13:01:55;16.87;;;10.53;;
4652;SDS011;9900;48.738;9.306;2022-12-11T13:04:34;15.13;;;9.90;;
4652;SDS011;9900;48.738;9.306;2022-12-11T13:07:24;16.57;;;10.23;;
4652;SDS011;9900;48.738;9.306;2022-12-11T13:10:00;17.37;;;10.70;;
4652;SDS011;9900;48.738;9.306;2022-12-11T13:12:33;15.17;;;10.00;;
4652;SDS011;9900;48.738;9.306;2022-12-11T13:15:22;17.53;;;10.63;;
4652;SDS011;9900;48.738;9.306;2022-12-11T13:17:51;15.17;;;9.70;;
4652;SDS011;9900;48.738;9.306;2022-12-11T13:20:22;17.20;;;10.77;;
4652;SDS011;9900;48.738;9.306;2022-12-11T13:22:53;16.77;;;11.27;;
4652;SDS011;9900;48.738;9.306;2022-12-11T13:25:27;20.77;;;11.50;;
4652;SDS011;9900;48.738;9.306;2022-12-11T13:28:04;17.93;;;9.70;;
4652;SDS011;9900;48.738;9.306;2022-12-11T13:30:33;20.20;;;10.70;;
4652;SDS011;9900;48.738;9.306;2022-12-11T13:33:03;16.93;;;10.40;;
4652;SDS011;9900;48.738;9.306;2022-12-11T13:35:35;17.10;;;11.23;;
4652;SDS011;9900;48.738;9.306;2022-12-11T13:38:05;18.83;;;9.97;;
4652;SDS011;9900;48.738;9.306;2022-12-11T13:40:37;20.27;;;10.63;;
4652;SDS011;9900;48.738;9.306;2022-12-11T13:43:08;15.43;;;10.37;;
4652;SDS011;9900;48.738;9.306;2022-12-11T13:45:45;20.63;;;11.43;;
4652;SDS011;9900;48.738;9.306;2022-12-11T13:48:18;16.83;;;10.70;;
4652;SDS011;9900;48.738;9.306;2022-12-11T13:50:51;16.87;;;10.33;;
4652;SDS011;9900;48.738;9.306;2022-12-11T13:53:21;16.20;;;10.00;;
4652;SDS011;9900;48.738;9.306;2022-12-11T13:55:56;16.23;;;10.33;;
4652;SDS011;9900;48.738;9.306;2022-12-11T13:58:25;20.80;;;10.60;;
4652;SDS011;9900;48.738;9.306;2022-12-11T14:00:58;18.10;;;10.97;;
4652;SDS011;9900;48.738;9.306;2022-12-11T14:03:32;18.47;;;10.87;;
4652;SDS011;9900;48.738;9.306;2022-12-11T14:06:02;17.07;;;10.80;;
4652;SDS011;9900;48.738;9.306;2022-12-11T14:08:32;20.90;;;11.53;;
4652;SDS011;9900;48.738;9.306;2022-12-11T14:11:01;18.47;;;11.20;;
4652;SDS011;9900;48.738;9.306;2022-12-11T14:13:31;20.57;;;10.77;;
4652;SDS011;9900;48.738;9.306;2022-12-11T14:16:01;18.73;;;10.33;;
4652;SDS011;9900;48.738;9.306;2022-12-11T14:18:30;19.10;;;11.43;;
4652;SDS011;9900;48.738;9.306;2022-12-11T14:21:01;17.87;;;11.37;;
4652;SDS011;9900;48.738;9.306;2022-12-11T14:23:33;18.53;;;10.60;;
4652;SDS011;9900;48.738;9.306;2022-12-11T14:26:02;15.93;;;10.87;;
4652;SDS011;9900;48.738;9.306;2022-12-11T14:28:42;25.83;;;11.43;;
4652;SDS011;9900;48.738;9.306;2022-12-11T14:31:12;23.43;;;13.20;;
4652;SDS011;9900;48.738;9.306;2022-12-11T14:33:43;18.40;;;11.03;;
4652;SDS011;9900;48.738;9.306;2022-12-11T14:36:15;18.73;;;10.80;;
4652;SDS011;9900;48.738;9.306;2022-12-11T14:38:44;18.40;;;11.20;;
4652;SDS011;9900;48.738;9.306;2022-12-11T14:41:15;23.63;;;11.30;;
4652;SDS011;9900;48.738;9.306;2022-12-11T14:43:47;18.17;;;11.20;;
4652;SDS011;9900;48.738;9.306;2022-12-11T14:46:19;21.73;;;12.10;;
4652;SDS011;9900;48.738;9.306;2022-12-11T14:48:50;21.90;;;12.40;;
4652;SDS011;9900;48.738;9.306;2022-12-11T14:51:29;21.97;;;13.03;;
4652;SDS011;9900;48.738;9.306;2022-12-11T14:54:02;20.53;;;12.80;;
4652;SDS011;9900;48.738;9.306;2022-12-11T14:56:31;25.47;;;13.50;;
4652;SDS011;9900;48.738;9.306;2022-12-11T14:59:01;24.53;;;13.50;;
4652;SDS011;9900;48.738;9.306;2022-12-11T15:01:32;21.57;;;13.13;;
4652;SDS011;9900;48.738;9.306;2022-12-11T15:04:02;22.17;;;13.40;;
4652;SDS011;9900;48.738;9.306;2022-12-11T15:06:42;24.53;;;13.37;;
4652;SDS011;9900;48.738;9.306;2022-12-11T15:09:16;22.77;;;13.77;;
4652;SDS011;9900;48.738;9.306;2022-12-11T15:11:46;25.20;;;13.90;;
4652;SDS011;9900;48.738;9.306;2022-12-11T15:14:17;26.83;;;14.20;;
4652;SDS011;9900;48.738;9.306;2022-12-11T15:16:46;29.73;;;15.33;;
4652;SDS011;9900;48.738;9.306;2022-12-11T15:19:17;28.63;;;15.03;;
4652;SDS011;9900;48.738;9.306;2022-12-11T15:21:49;29.20;;;14.63;;
4652;SDS011;9900;48.738;9.306;2022-12-11T15:24:22;25.63;;;13.87;;